Time;durP1;ratioP1;P1;durP2;ratioP2;P2;SDS_P1;SDS_P2;PMS_P1;PMS_P2;Temp;Humidity;BMP_temperature;BMP_pressure;BME280_temperature;BME280_humidity;BME280_pressure;Samples;Min_cycle;Max_cycle;Signal;HPM_P1;HPM_P2
2023/06/03 00:00:41;;;;;;;12.40;7.65;;;;;;;18.21;92.98;99810.66;1736974;82;21361;-80
2023/06/03 00:03:47;;;;;;;13.05;8.35;;;;;;;18.35;91.69;99808.52;1737465;82;21902;-80
2023/06/03 00:06:53;;;;;;;10.90;7.40;;;;;;;18.35;91.18;99808.52;1736890;82;21901;-80
2023/06/03 00:09:59;;;;;;;13.95;8.78;;;;;;;18.43;91.12;99800.38;1737412;82;21846;-81
2023/06/03 00:13:07;;;;;;;17.07;8.40;;;;;;;18.51;90.56;99805.02;1737303;81;21302;-80
2023/06/03 00:16:13;;;;;;;15.55;8.00;;;;;;;18.38;90.50;99800.55;1730103;83;21299;-80
2023/06/03 00:19:18;;;;;;;11.65;7.12;;;;;;;18.11;92.09;99794.65;1720169;83;21321;-80
2023/06/03 00:22:27;;;;;;;15.03;8.63;;;;;;;17.96;92.44;99794.23;1720093;83;21964;-80
2023/06/03 00:25:32;;;;;;;11.93;7.70;;;;;;;17.88;92.41;99795.98;1720200;83;21328;-80
2023/06/03 00:28:37;;;;;;;14.28;9.05;;;;;;;17.96;92.03;99792.01;1718920;83;21905;-80
2023/06/03 00:31:42;;;;;;;16.57;8.50;;;;;;;17.95;92.10;99791.71;1720156;83;21348;-80
2023/06/03 00:34:41;;;;;;;16.60;8.68;;;;;;;17.96;92.06;99790.63;1720380;83;21325;-80
2023/06/03 00:37:34;;;;;;;19.65;9.08;;;;;;;17.91;92.16;99791.33;1719534;83;21329;-80
2023/06/03 00:40:40;;;;;;;13.63;8.17;;;;;;;18.04;91.41;99793.89;1719070;83;21341;-80
2023/06/03 00:43:46;;;;;;;10.88;7.85;;;;;;;17.94;91.69;99790.88;1719534;83;21344;-80
2023/06/03 00:46:53;;;;;;;16.82;8.80;;;;;;;17.79;92.37;99788.55;1719994;83;21896;-80
2023/06/03 00:49:59;;;;;;;15.13;8.38;;;;;;;17.73;92.70;99794.13;1720194;83;21312;-81
2023/06/03 00:53:05;;;;;;;13.20;8.65;;;;;;;17.71;92.69;99794.38;1720024;83;21313;-81
2023/06/03 00:56:12;;;;;;;13.58;8.43;;;;;;;17.55;93.36;99798.66;1720045;83;21339;-80
2023/06/03 00:59:21;;;;;;;10.88;7.85;;;;;;;17.47;93.58;99797.59;1719676;83;22653;-80
2023/06/03 01:02:26;;;;;;;15.03;7.97;;;;;;;17.39;93.69;99792.38;1719209;83;21324;-82
2023/06/03 01:05:32;;;;;;;11.38;7.83;;;;;;;17.33;93.51;99790.02;1720185;83;21875;-82
2023/06/03 01:08:51;;;;;;;16.23;8.38;;;;;;;17.38;93.23;99776.88;1719192;83;21364;-82
2023/06/03 01:12:14;;;;;;;9.25;7.83;;;;;;;17.38;92.47;99785.17;1720505;83;21325;-82
2023/06/03 01:15:28;;;;;;;11.08;8.38;;;;;;;17.35;92.65;99781.48;1731261;82;21383;-82
2023/06/03 01:18:34;;;;;;;14.10;8.90;;;;;;;17.23;92.74;99785.59;1757882;81;21272;-82
2023/06/03 01:21:40;;;;;;;12.47;8.50;;;;;;;17.18;92.39;99778.53;1739032;82;21364;-82
2023/06/03 01:24:45;;;;;;;12.35;7.78;;;;;;;17.27;91.99;99774.92;1737478;82;21304;-80
2023/06/03 01:27:52;;;;;;;13.35;7.90;;;;;;;17.33;91.41;99776.73;1738811;82;21355;-81
2023/06/03 01:30:59;;;;;;;14.43;7.75;;;;;;;17.41;90.61;99766.75;1738737;82;21324;-80
2023/06/03 01:34:07;;;;;;;10.50;7.87;;;;;;;17.46;89.71;99766.89;1721490;83;21321;-80
2023/06/03 01:37:13;;;;;;;15.43;7.53;;;;;;;17.32;89.63;99758.48;1721330;83;21903;-81
2023/06/03 01:40:18;;;;;;;10.45;8.38;;;;;;;17.40;88.97;99770.56;1721428;83;21882;-80
2023/06/03 01:43:24;;;;;;;12.18;8.55;;;;;;;17.37;88.99;99764.14;1721511;83;21897;-80
2023/06/03 01:46:25;;;;;;;10.43;9.03;;;;;;;17.38;89.33;99767.20;1720143;83;21347;-79
2023/06/03 01:49:31;;;;;;;14.13;8.50;;;;;;;17.28;90.37;99766.92;1720442;83;21952;-80
2023/06/03 01:52:39;;;;;;;11.60;8.28;;;;;;;17.16;91.14;99775.14;1698881;83;21323;-79
2023/06/03 01:55:46;;;;;;;11.78;7.90;;;;;;;17.29;90.67;99769.45;1721547;83;21340;-80
2023/06/03 01:58:52;;;;;;;13.65;8.23;;;;;;;17.39;90.08;99774.41;1720758;83;21339;-80
2023/06/03 02:02:03;;;;;;;11.43;8.05;;;;;;;17.44;90.00;99769.56;1720272;83;21357;-79
2023/06/03 02:05:09;;;;;;;11.22;7.37;;;;;;;17.74;89.82;99777.90;1722010;83;22360;-80
2023/06/03 02:08:15;;;;;;;9.78;5.83;;;;;;;17.80;90.04;99779.17;1721326;83;21374;-80
2023/06/03 02:11:20;;;;;;;8.63;5.50;;;;;;;18.28;88.40;99785.63;1721546;83;21335;-80
2023/06/03 02:14:26;;;;;;;10.35;6.28;;;;;;;18.14;88.11;99776.70;1721350;83;21315;-80
2023/06/03 02:17:32;;;;;;;19.62;9.53;;;;;;;18.32;87.48;99782.69;1718819;83;21354;-80
2023/06/03 02:20:37;;;;;;;28.40;14.47;;;;;;;18.55;86.29;99777.70;1721086;83;21311;-81
2023/06/03 02:23:43;;;;;;;37.15;15.85;;;;;;;18.66;85.72;99787.91;1721082;83;21354;-80
2023/06/03 02:26:54;;;;;;;51.02;22.07;;;;;;;18.98;84.85;99792.55;1720913;83;21359;-80
2023/06/03 02:29:59;;;;;;;53.28;25.57;;;;;;;19.19;83.59;99786.88;1721954;83;21894;-80
2023/06/03 02:33:05;;;;;;;58.70;28.90;;;;;;;19.37;82.71;99781.16;1720981;83;21338;-80
2023/06/03 02:36:11;;;;;;;57.62;26.97;;;;;;;19.78;82.10;99779.20;1719394;83;21895;-81
2023/06/03 02:39:18;;;;;;;45.30;22.02;;;;;;;20.22;80.37;99773.85;1720324;83;21331;-80
2023/06/03 02:42:25;;;;;;;40.38;18.50;;;;;;;20.61;78.31;99770.63;1721506;83;21886;-80
2023/06/03 02:45:31;;;;;;;24.35;13.65;;;;;;;20.92;76.55;99773.83;1721173;83;21358;-80
2023/06/03 02:48:38;;;;;;;25.37;12.30;;;;;;;21.08;75.17;99777.12;1721261;83;21866;-79
2023/06/03 02:51:44;;;;;;;13.90;7.55;;;;;;;21.34;74.10;99788.58;1721716;83;21869;-80
2023/06/03 02:54:51;;;;;;;15.58;6.97;;;;;;;21.44;73.95;99795.09;1721441;83;21326;-80
2023/06/03 02:57:58;;;;;;;12.25;6.35;;;;;;;21.82;71.50;99793.28;1721270;83;22628;-81
2023/06/03 03:01:03;;;;;;;13.43;6.47;;;;;;;22.15;70.14;99799.76;1719897;83;21338;-81
2023/06/03 03:04:09;;;;;;;9.60;5.35;;;;;;;22.47;69.31;99794.18;1721158;83;21339;-81
2023/06/03 03:07:17;;;;;;;11.80;4.67;;;;;;;22.84;67.70;99803.08;1721242;83;21330;-81
2023/06/03 03:10:23;;;;;;;7.12;5.00;;;;;;;22.79;67.86;99804.45;1720602;83;21370;-81
2023/06/03 03:13:30;;;;;;;14.63;4.72;;;;;;;22.93;67.34;99801.50;1719853;83;21886;-81
2023/06/03 03:16:36;;;;;;;14.23;4.50;;;;;;;23.08;67.37;99804.92;1719546;83;21339;-81
2023/06/03 03:19:42;;;;;;;15.48;4.75;;;;;;;23.19;67.05;99804.69;1720904;83;21945;-81
2023/06/03 03:22:51;;;;;;;9.50;4.87;;;;;;;23.17;67.19;99799.11;1719845;83;21347;-81
2023/06/03 03:25:58;;;;;;;19.37;5.10;;;;;;;23.18;67.63;99805.80;1721658;83;21307;-82
2023/06/03 03:29:04;;;;;;;8.28;4.67;;;;;;;23.37;67.21;99801.14;1721604;83;21347;-81
2023/06/03 03:32:13;;;;;;;8.73;4.72;;;;;;;23.30;67.23;99808.95;1721704;83;21347;-81
2023/06/03 03:35:27;;;;;;;7.97;5.03;;;;;;;23.53;66.72;99811.27;1720079;83;21324;-81
2023/06/03 03:38:33;;;;;;;7.10;5.30;;;;;;;23.85;66.10;99817.23;1721441;83;21331;-81
2023/06/03 03:41:38;;;;;;;10.15;5.08;;;;;;;24.08;65.43;99826.49;1720006;83;21322;-80
2023/06/03 03:44:45;;;;;;;8.33;5.53;;;;;;;24.14;65.27;99820.38;1721321;83;21318;-80
2023/06/03 03:47:52;;;;;;;16.17;5.70;;;;;;;24.08;65.74;99825.09;1720245;83;21378;-80
2023/06/03 03:50:59;;;;;;;11.63;6.08;;;;;;;24.26;65.60;99827.08;1697095;83;21355;-81
2023/06/03 03:54:05;;;;;;;11.18;5.75;;;;;;;24.32;65.35;99828.19;1721703;83;21327;-81
2023/06/03 03:57:16;;;;;;;14.07;5.87;;;;;;;24.32;65.14;99834.34;1721357;83;21338;-80
2023/06/03 04:00:22;;;;;;;9.50;5.65;;;;;;;24.55;64.55;99829.62;1721097;83;21346;-81
2023/06/03 04:03:35;;;;;;;14.45;6.55;;;;;;;24.61;64.22;99827.69;1719955;83;21918;-80
2023/06/03 04:06:40;;;;;;;12.63;6.10;;;;;;;24.43;64.39;99831.88;1720083;83;21323;-81
2023/06/03 04:09:46;;;;;;;12.33;6.28;;;;;;;24.55;64.01;99825.99;1721292;83;21330;-81
2023/06/03 04:12:53;;;;;;;10.30;5.33;;;;;;;24.54;63.51;99824.33;1721329;83;21331;-81
2023/06/03 04:16:00;;;;;;;16.48;5.53;;;;;;;24.80;62.26;99827.95;1721569;83;21339;-80
2023/06/03 04:19:11;;;;;;;13.03;5.37;;;;;;;24.67;62.16;99831.59;1719433;83;21362;-80
2023/06/03 04:22:17;;;;;;;11.12;5.58;;;;;;;24.52;62.28;99830.20;1720205;83;21323;-80
2023/06/03 04:25:23;;;;;;;9.08;4.80;;;;;;;24.58;62.01;99833.27;1697652;83;21307;-81
2023/06/03 04:28:29;;;;;;;10.28;5.03;;;;;;;24.71;61.93;99827.11;1698044;83;21355;-81
2023/06/03 04:31:35;;;;;;;7.08;3.85;;;;;;;24.92;60.70;99832.10;1720616;83;21345;-81
2023/06/03 04:34:41;;;;;;;5.17;3.87;;;;;;;24.96;60.00;99836.58;1720910;82;22569;-80
2023/06/03 04:37:47;;;;;;;11.78;4.30;;;;;;;25.16;58.81;99842.15;1721210;83;21331;-80
2023/06/03 04:40:53;;;;;;;10.15;4.62;;;;;;;25.23;58.37;99839.06;1720868;83;21327;-80
2023/06/03 04:44:02;;;;;;;12.07;4.47;;;;;;;25.43;57.57;99838.16;1697083;84;21343;-80
2023/06/03 04:47:11;;;;;;;6.78;3.80;;;;;;;25.53;56.74;99852.11;1724800;83;21345;-80
2023/06/03 04:50:19;;;;;;;10.58;3.47;;;;;;;25.39;57.23;99853.27;1787970;80;21291;-81
2023/06/03 04:53:28;;;;;;;12.88;4.12;;;;;;;25.41;56.77;99854.41;1797356;80;21303;-81
2023/06/03 04:56:33;;;;;;;6.80;4.00;;;;;;;25.53;56.05;99853.50;1726954;83;21341;-81
2023/06/03 04:59:38;;;;;;;7.85;3.40;;;;;;;25.65;55.61;99855.98;1797344;80;21886;-80
2023/06/03 05:02:54;;;;;;;7.75;3.75;;;;;;;25.80;54.49;99855.11;1795930;80;21351;-81
2023/06/03 05:05:54;;;;;;;10.28;3.35;;;;;;;25.81;54.23;99860.98;1796313;80;21288;-80
2023/06/03 05:09:00;;;;;;;12.15;3.60;;;;;;;26.01;53.37;99866.45;1797618;80;21225;-81
2023/06/03 05:12:05;;;;;;;12.73;4.03;;;;;;;26.16;52.26;99860.78;1795971;80;21338;-81
2023/06/03 05:15:13;;;;;;;8.43;3.50;;;;;;;26.47;51.60;99867.59;1795911;80;21292;-81
2023/06/03 05:18:19;;;;;;;10.78;3.60;;;;;;;26.76;50.97;99871.83;1725914;83;21928;-81
2023/06/03 05:21:26;;;;;;;9.90;4.30;;;;;;;26.78;50.81;99870.16;1800255;79;21304;-80
2023/06/03 05:24:33;;;;;;;8.48;3.90;;;;;;;26.91;49.51;99878.72;1800427;79;21291;-80
2023/06/03 05:27:39;;;;;;;8.55;3.45;;;;;;;27.15;48.24;99877.97;1800427;79;21879;-80
2023/06/03 05:30:45;;;;;;;12.30;3.20;;;;;;;27.39;47.37;99877.41;1800674;79;21260;-80
2023/06/03 05:33:51;;;;;;;7.17;3.60;;;;;;;27.51;46.96;99879.78;1799686;79;21200;-80
2023/06/03 05:36:56;;;;;;;5.78;3.50;;;;;;;27.58;47.27;99884.48;1800462;79;21292;-80
2023/06/03 05:40:02;;;;;;;7.03;3.25;;;;;;;27.53;47.43;99884.55;1800426;79;21292;-80
2023/06/03 05:43:08;;;;;;;7.10;2.60;;;;;;;27.70;45.00;99886.28;1799124;79;21300;-80
2023/06/03 05:46:15;;;;;;;4.20;2.37;;;;;;;27.94;43.36;99889.66;1800572;79;21292;-80
2023/06/03 05:49:21;;;;;;;9.70;3.20;;;;;;;27.97;41.32;99888.50;1799488;79;21343;-81
2023/06/03 05:52:33;;;;;;;5.20;2.52;;;;;;;28.07;40.66;99888.92;1799692;79;21359;-81
2023/06/03 05:55:39;;;;;;;6.05;2.80;;;;;;;28.17;40.56;99890.75;1800434;79;21288;-80
2023/06/03 05:58:45;;;;;;;5.65;2.62;;;;;;;28.27;40.41;99894.24;1800436;79;21308;-80
2023/06/03 06:01:44;;;;;;;8.98;2.98;;;;;;;28.36;39.41;99887.97;1799058;79;21331;-80
2023/06/03 06:04:49;;;;;;;11.35;2.87;;;;;;;28.58;39.58;99885.95;1799303;79;21942;-80
2023/06/03 06:07:56;;;;;;;8.83;2.87;;;;;;;28.84;39.64;99887.75;1800380;79;21296;-80
2023/06/03 06:11:04;;;;;;;8.23;2.90;;;;;;;28.73;37.82;99891.31;1800543;79;21334;-80
2023/06/03 06:14:10;;;;;;;4.70;2.40;;;;;;;28.68;38.30;99890.83;1800435;79;21308;-81
2023/06/03 06:17:16;;;;;;;10.75;3.00;;;;;;;28.72;38.76;99884.86;1799150;79;21308;-81
2023/06/03 06:20:22;;;;;;;11.43;2.58;;;;;;;28.85;37.82;99886.63;1799085;79;21315;-81
2023/06/03 06:23:28;;;;;;;10.55;2.70;;;;;;;28.93;36.58;99883.92;1796237;80;21292;-80
2023/06/03 06:26:34;;;;;;;4.80;2.05;;;;;;;28.99;35.87;99883.31;1795859;80;21327;-80
2023/06/03 06:29:39;;;;;;;4.50;2.22;;;;;;;28.90;34.33;99882.31;1795790;80;21308;-80
2023/06/03 06:32:59;;;;;;;3.35;1.95;;;;;;;28.83;34.39;99883.27;1796765;80;21363;-80
2023/06/03 06:36:05;;;;;;;9.08;2.22;;;;;;;28.91;34.84;99883.98;1795833;80;21308;-80
2023/06/03 06:39:11;;;;;;;10.65;2.87;;;;;;;29.05;34.12;99886.87;1726811;83;21322;-80
2023/06/03 06:42:21;;;;;;;8.08;2.65;;;;;;;29.13;33.36;99884.17;1797416;80;21350;-80
2023/06/03 06:45:42;;;;;;;9.08;2.30;;;;;;;29.13;33.10;99878.55;1727113;83;21342;-81
2023/06/03 06:48:49;;;;;;;9.10;2.12;;;;;;;29.29;32.78;99874.28;1797293;80;21296;-80
2023/06/03 06:51:54;;;;;;;5.75;2.20;;;;;;;29.18;33.38;99879.86;1797466;80;21307;-80
2023/06/03 06:55:03;;;;;;;8.73;3.22;;;;;;;29.43;32.73;99873.45;1795771;80;21296;-80
2023/06/03 06:58:14;;;;;;;5.00;2.27;;;;;;;29.48;32.94;99874.77;1797601;80;21866;-80
2023/06/03 07:01:19;;;;;;;5.72;2.33;;;;;;;29.50;32.41;99875.27;1796656;80;21331;-80
2023/06/03 07:04:25;;;;;;;8.73;2.25;;;;;;;29.51;31.57;99874.98;1795991;80;21320;-80
2023/06/03 07:07:31;;;;;;;11.85;1.98;;;;;;;29.66;31.70;99876.67;1797616;80;21291;-80
2023/06/03 07:10:36;;;;;;;13.93;2.50;;;;;;;29.92;31.29;99876.11;1795817;80;21303;-80
2023/06/03 07:13:42;;;;;;;7.92;2.22;;;;;;;29.94;31.56;99876.65;1726090;83;21357;-80
2023/06/03 07:16:51;;;;;;;3.77;1.82;;;;;;;30.01;31.23;99876.46;1797445;80;21311;-80
2023/06/03 07:19:57;;;;;;;5.75;2.10;;;;;;;29.98;30.76;99866.41;1797065;80;21372;-80
2023/06/03 07:23:02;;;;;;;5.87;2.60;;;;;;;29.88;30.22;99867.48;1799927;79;21331;-80
2023/06/03 07:26:07;;;;;;;4.28;2.22;;;;;;;30.05;31.12;99871.03;1802992;79;21299;-80
2023/06/03 07:29:05;;;;;;;5.55;2.05;;;;;;;30.14;31.46;99869.16;1803944;79;21264;-80
2023/06/03 07:32:16;;;;;;;3.22;2.00;;;;;;;30.19;30.99;99871.03;1803255;79;21307;-80
2023/06/03 07:35:26;;;;;;;13.83;2.70;;;;;;;30.16;30.86;99869.70;1801361;79;21311;-81
2023/06/03 07:39:06;;;;;;;5.40;2.55;;;;;;;30.18;30.57;99865.97;1801549;79;21204;-80
2023/06/03 07:42:29;;;;;;;7.60;2.00;;;;;;;29.94;31.30;99864.80;1803001;79;21889;-81
2023/06/03 07:45:38;;;;;;;6.87;2.30;;;;;;;29.97;31.57;99865.58;1802725;79;21936;-81
2023/06/03 07:48:45;;;;;;;10.72;1.98;;;;;;;29.86;31.83;99859.89;1802620;79;21291;-81
2023/06/03 07:51:55;;;;;;;5.87;2.50;;;;;;;29.83;30.76;99865.32;1786703;79;21307;-81
2023/06/03 07:55:01;;;;;;;4.60;1.70;;;;;;;29.87;30.65;99859.31;1777211;80;21354;-81
2023/06/03 07:58:07;;;;;;;6.33;2.00;;;;;;;29.91;30.38;99857.53;1778719;80;21276;-81
2023/06/03 08:01:06;;;;;;;6.85;2.10;;;;;;;30.07;30.36;99865.09;1778323;80;21375;-81
2023/06/03 08:04:13;;;;;;;5.58;2.52;;;;;;;30.16;31.07;99865.47;1778809;80;21312;-81
2023/06/03 08:07:19;;;;;;;6.95;2.25;;;;;;;30.27;29.73;99863.23;1772794;80;21351;-81
2023/06/03 08:10:23;;;;;;;11.20;2.37;;;;;;;30.27;29.81;99868.30;1771645;81;21316;-80
2023/06/03 08:13:16;;;;;;;6.58;2.02;;;;;;;30.20;30.41;99868.46;1773050;81;21295;-81
2023/06/03 08:16:23;;;;;;;12.98;2.65;;;;;;;30.09;29.92;99864.19;1773017;81;21291;-80
2023/06/03 08:19:29;;;;;;;5.78;2.30;;;;;;;30.09;29.92;99864.19;1773003;81;21299;-81
2023/06/03 08:22:51;;;;;;;8.08;2.40;;;;;;;30.26;30.31;99868.05;1768448;81;22691;-80
2023/06/03 08:25:57;;;;;;;7.53;2.55;;;;;;;30.20;30.20;99863.66;1764574;81;21866;-80
2023/06/03 08:29:02;;;;;;;9.85;2.52;;;;;;;30.08;30.18;99861.95;1764758;81;21304;-80
2023/06/03 08:32:08;;;;;;;5.78;2.02;;;;;;;30.07;31.13;99870.16;1764603;81;21308;-80
2023/06/03 08:35:17;;;;;;;9.53;2.70;;;;;;;30.14;30.26;99873.39;1763841;81;21901;-80
2023/06/03 08:38:24;;;;;;;5.20;2.53;;;;;;;30.07;29.72;99870.16;1764982;81;21898;-81
2023/06/03 08:41:32;;;;;;;9.15;2.80;;;;;;;30.20;31.18;99867.05;1764705;81;21295;-80
2023/06/03 08:44:45;;;;;;;8.78;2.50;;;;;;;30.20;30.27;99867.05;1764358;81;21347;-80
2023/06/03 08:48:14;;;;;;;10.60;2.83;;;;;;;30.20;30.27;99867.05;1764828;81;21877;-80
2023/06/03 08:51:22;;;;;;;;;;;;;;;30.32;30.93;99875.80;1767246;81;21347;-80
2023/06/03 08:54:31;;;;;;;8.28;2.42;;;;;;;30.37;27.75;99880.49;1764494;81;20680;-80
2023/06/03 08:57:39;;;;;;;9.43;2.00;;;;;;;30.37;27.75;99880.49;1764785;81;21316;-80
2023/06/03 09:00:45;;;;;;;5.00;2.40;;;;;;;30.37;27.45;99882.73;1764923;81;21926;-80
2023/06/03 09:03:53;;;;;;;8.15;2.20;;;;;;;30.24;29.17;99878.80;1764761;81;21292;-80
2023/06/03 09:07:01;;;;;;;6.80;2.40;;;;;;;30.19;28.49;99884.55;1763207;81;21886;-80
2023/06/03 09:10:05;;;;;;;8.18;2.25;;;;;;;30.32;29.62;99879.20;1763047;81;21292;-80
2023/06/03 09:13:11;;;;;;;5.55;2.62;;;;;;;30.32;29.62;99879.20;1764506;81;21296;-80
2023/06/03 09:16:16;;;;;;;5.25;2.70;;;;;;;30.43;28.92;99883.44;1763252;81;21344;-80
2023/06/03 09:19:22;;;;;;;4.50;2.33;;;;;;;30.53;28.81;99877.55;1764589;81;21885;-81
2023/06/03 09:22:28;;;;;;;5.58;2.35;;;;;;;30.59;28.60;99881.10;1763935;81;21354;-80
2023/06/03 09:25:34;;;;;;;7.55;2.50;;;;;;;30.76;28.15;99880.66;1763988;81;21312;-80
2023/06/03 09:28:42;;;;;;;6.83;2.58;;;;;;;30.77;29.29;99886.58;1764441;81;21857;-81
2023/06/03 09:31:49;;;;;;;7.28;2.60;;;;;;;30.76;28.43;99887.72;1764659;81;21360;-81
2023/06/03 09:34:55;;;;;;;6.53;2.15;;;;;;;30.86;28.03;99884.38;1763261;81;21346;-80
2023/06/03 09:38:09;;;;;;;7.08;2.52;;;;;;;30.79;28.02;99878.61;1763863;81;21927;-80
2023/06/03 09:41:28;;;;;;;4.50;2.55;;;;;;;30.75;28.00;99886.05;1764590;81;21336;-81
2023/06/03 09:44:52;;;;;;;2.50;2.17;;;;;;;30.89;28.42;99890.80;1764734;81;21878;-80
2023/06/03 09:47:58;;;;;;;5.78;2.72;;;;;;;31.01;27.45;99884.83;1763172;81;21308;-81
2023/06/03 09:51:04;;;;;;;7.85;2.67;;;;;;;31.22;28.50;99885.69;1764669;81;21320;-80
2023/06/03 09:54:22;;;;;;;7.85;2.80;;;;;;;31.40;28.13;99893.70;1764521;81;21348;-80
2023/06/03 09:57:20;;;;;;;5.17;2.33;;;;;;;31.40;28.13;99893.70;1763362;81;21323;-80
2023/06/03 10:00:17;;;;;;;5.28;2.45;;;;;;;31.40;27.61;99891.71;1764443;81;21890;-80
2023/06/03 10:03:23;;;;;;;6.25;2.62;;;;;;;31.02;26.33;99893.55;1764442;81;21353;-80
2023/06/03 10:06:28;;;;;;;8.28;2.95;;;;;;;30.72;26.63;99894.32;1763768;81;21347;-81
2023/06/03 10:09:34;;;;;;;7.75;2.40;;;;;;;30.44;27.54;99889.33;1777155;79;21295;-80
2023/06/03 10:12:40;;;;;;;5.47;2.55;;;;;;;30.26;28.98;99886.95;1806511;79;21541;-80
2023/06/03 10:15:46;;;;;;;6.15;2.70;;;;;;;30.11;28.96;99888.08;1806441;79;21902;-80
2023/06/03 10:18:52;;;;;;;4.47;2.10;;;;;;;30.60;28.60;99885.58;1808263;79;22686;-80
2023/06/03 10:21:58;;;;;;;8.98;2.10;;;;;;;30.60;28.60;99885.58;1807956;79;21305;-80
2023/06/03 10:25:05;;;;;;;5.00;2.25;;;;;;;30.45;27.71;99887.63;1803060;79;21351;-80
2023/06/03 10:28:11;;;;;;;6.97;2.62;;;;;;;30.17;27.56;99886.87;1802289;79;21300;-80
2023/06/03 10:31:17;;;;;;;4.53;2.22;;;;;;;29.91;28.45;99892.20;1802485;79;21287;-80
2023/06/03 10:34:23;;;;;;;5.90;2.20;;;;;;;29.91;29.71;99886.56;1802249;79;21343;-80
2023/06/03 10:37:29;;;;;;;3.75;2.12;;;;;;;29.95;29.41;99883.38;1800842;79;21906;-80
2023/06/03 10:40:35;;;;;;;8.35;2.17;;;;;;;30.03;29.66;99880.39;1798085;79;21299;-81
2023/06/03 10:43:41;;;;;;;7.47;2.25;;;;;;;30.34;28.46;99876.88;1796855;80;21300;-81
2023/06/03 10:46:49;;;;;;;2.77;1.90;;;;;;;30.33;27.52;99879.45;1796326;80;21313;-82
2023/06/03 10:49:56;;;;;;;8.35;2.30;;;;;;;30.42;28.21;99878.37;1796714;80;21339;-81
2023/06/03 10:53:22;;;;;;;3.87;2.20;;;;;;;30.56;28.42;99875.50;1725196;83;21364;-81
2023/06/03 10:56:43;;;;;;;4.08;2.30;;;;;;;30.71;28.68;99880.79;1763448;81;21355;-81
2023/06/03 10:59:51;;;;;;;4.05;2.10;;;;;;;30.90;28.70;99887.65;1764033;81;21859;-81
2023/06/03 11:03:16;;;;;;;6.65;1.75;;;;;;;31.10;28.64;99881.20;1764858;81;21304;-81
2023/06/03 11:06:34;;;;;;;8.43;2.33;;;;;;;31.13;26.85;99890.45;1764304;81;21300;-80
2023/06/03 11:09:45;;;;;;;3.05;1.82;;;;;;;31.13;26.85;99890.45;1760986;80;21371;-81
2023/06/03 11:12:58;;;;;;;3.20;1.95;;;;;;;31.00;27.09;99894.44;1759648;81;21307;-81
2023/06/03 11:16:09;;;;;;;6.80;1.92;;;;;;;30.67;26.65;99885.38;1759584;81;21316;-81
2023/06/03 11:19:43;;;;;;;8.00;2.62;;;;;;;30.47;26.30;99887.30;1759714;81;21340;-80
2023/06/03 11:22:48;;;;;;;5.42;2.10;;;;;;;30.10;26.55;99886.42;1733067;80;21339;-80
2023/06/03 11:25:54;;;;;;;3.62;1.70;;;;;;;30.10;26.55;99886.42;1764601;81;21351;-81
2023/06/03 11:29:00;;;;;;;3.20;2.20;;;;;;;30.63;27.30;99887.20;1763106;81;21288;-81
2023/06/03 11:32:25;;;;;;;3.85;1.87;;;;;;;30.63;27.30;99887.20;1763001;81;21319;-81
2023/06/03 11:35:34;;;;;;;2.75;1.67;;;;;;;30.98;24.66;99877.58;1764630;81;21303;-81
2023/06/03 11:39:07;;;;;;;10.05;2.02;;;;;;;30.98;24.66;99877.58;1763192;80;21858;-81
2023/06/03 11:42:16;;;;;;;11.30;1.95;;;;;;;31.09;27.11;99878.96;1764494;81;22486;-81
2023/06/03 11:45:32;;;;;;;4.87;1.77;;;;;;;31.24;26.15;99868.68;1764860;81;21921;-81
2023/06/03 11:48:38;;;;;;;3.02;2.00;;;;;;;31.34;26.22;99873.24;1763343;81;21316;-81
2023/06/03 11:51:44;;;;;;;10.70;1.70;;;;;;;31.42;24.13;99879.48;1764466;81;21312;-81
2023/06/03 11:54:53;;;;;;;5.75;1.75;;;;;;;31.36;24.21;99881.38;1763705;80;21332;-80
2023/06/03 11:58:00;;;;;;;5.35;2.10;;;;;;;31.04;23.48;99884.16;1763563;81;21374;-81
2023/06/03 12:01:17;;;;;;;7.60;2.10;;;;;;;30.83;24.26;99886.45;1763869;81;21335;-81
2023/06/03 12:04:23;;;;;;;3.60;2.00;;;;;;;30.66;23.62;99882.30;1752035;81;21360;-80
2023/06/03 12:07:29;;;;;;;8.33;2.20;;;;;;;30.79;23.48;99878.61;1728322;81;21332;-80
2023/06/03 12:10:35;;;;;;;6.92;3.10;;;;;;;30.61;30.00;99901.36;1763004;81;21335;-81
2023/06/03 12:13:48;;;;;;;8.08;3.08;;;;;;;30.61;30.00;99901.36;1764928;81;21898;-80
2023/06/03 12:16:53;;;;;;;10.88;3.50;;;;;;;30.61;33.72;99884.42;1765011;81;21276;-80
2023/06/03 12:20:00;;;;;;;10.90;3.50;;;;;;;30.37;34.22;99890.36;1764952;81;21324;-81
2023/06/03 12:23:10;;;;;;;18.67;3.70;;;;;;;30.08;34.92;99888.73;1764756;81;21340;-80
2023/06/03 12:26:15;;;;;;;14.15;4.80;;;;;;;29.91;37.08;99895.59;1763203;81;21319;-80
2023/06/03 12:29:21;;;;;;;9.05;4.03;;;;;;;29.42;37.81;99907.84;1773025;81;21331;-80
2023/06/03 12:32:31;;;;;;;6.50;3.85;;;;;;;29.07;38.45;99915.53;1771518;81;21316;-80
2023/06/03 12:35:38;;;;;;;16.87;4.60;;;;;;;28.88;38.50;99912.16;1772988;81;21303;-80
2023/06/03 12:39:06;;;;;;;12.10;3.83;;;;;;;28.40;40.26;99911.54;1772227;81;21913;-80
2023/06/03 12:42:12;;;;;;;10.53;4.33;;;;;;;28.04;41.24;99913.41;1773016;81;21304;-80
2023/06/03 12:45:17;;;;;;;13.00;4.30;;;;;;;27.62;42.51;99926.30;1773038;81;21292;-80
2023/06/03 12:48:36;;;;;;;8.93;4.42;;;;;;;27.38;43.40;99938.06;1772455;81;21886;-80
2023/06/03 12:51:42;;;;;;;10.00;4.30;;;;;;;27.24;44.65;99959.84;1773317;81;21303;-80
2023/06/03 12:54:54;;;;;;;10.95;4.47;;;;;;;27.21;45.40;99951.99;1772998;81;21303;-81
2023/06/03 12:57:58;;;;;;;8.00;4.35;;;;;;;26.73;45.96;99960.80;1773239;81;21343;-81
2023/06/03 13:01:03;;;;;;;10.43;3.60;;;;;;;26.35;47.10;99965.20;1772553;81;21350;-81
2023/06/03 13:04:10;;;;;;;20.68;4.30;;;;;;;26.06;48.51;99948.26;1773223;81;21307;-82
2023/06/03 13:07:15;;;;;;;17.45;5.53;;;;;;;25.86;49.13;99953.39;1773184;81;21300;-81
2023/06/03 13:10:18;;;;;;;12.78;4.05;;;;;;;25.53;49.65;99969.70;1773143;81;21344;-81
2023/06/03 13:13:24;;;;;;;13.62;3.30;;;;;;;25.45;49.06;99992.14;1773165;81;21299;-80
2023/06/03 13:16:30;;;;;;;11.28;3.50;;;;;;;25.01;49.53;99977.85;1773245;81;21324;-80
2023/06/03 13:19:37;;;;;;;10.58;3.35;;;;;;;24.74;49.71;100006.91;1771983;81;21336;-80
2023/06/03 13:22:45;;;;;;;5.87;3.10;;;;;;;24.56;51.39;99997.67;1773155;81;21843;-80
2023/06/03 13:25:52;;;;;;;11.35;4.20;;;;;;;24.33;51.97;99987.80;1772918;81;21327;-80
2023/06/03 13:28:58;;;;;;;9.53;4.30;;;;;;;24.42;51.15;99989.53;1771039;81;21919;-80
2023/06/03 13:32:04;;;;;;;12.70;4.42;;;;;;;24.44;51.36;99998.47;1773247;81;21295;-80
2023/06/03 13:35:09;;;;;;;10.35;3.80;;;;;;;24.52;51.81;99989.55;1773258;81;21332;-80
2023/06/03 13:38:14;;;;;;;9.90;5.15;;;;;;;24.49;51.57;99981.70;1773239;81;21374;-80
2023/06/03 13:41:20;;;;;;;15.58;5.15;;;;;;;24.21;53.06;99990.81;1772106;81;21343;-80
2023/06/03 13:44:29;;;;;;;11.50;5.62;;;;;;;24.38;52.13;99989.80;1773037;81;21300;-80
2023/06/03 13:47:34;;;;;;;13.45;6.08;;;;;;;24.35;52.71;100009.31;1773257;81;21312;-80
2023/06/03 13:50:40;;;;;;;15.98;5.90;;;;;;;24.15;53.33;99997.51;1773206;81;21303;-80
2023/06/03 13:53:46;;;;;;;15.28;6.00;;;;;;;24.20;53.51;99988.31;1773367;81;21200;-80
2023/06/03 13:56:53;;;;;;;9.18;4.92;;;;;;;24.45;52.51;99997.35;1772467;81;21335;-79
2023/06/03 13:59:59;;;;;;;23.42;7.17;;;;;;;24.11;54.00;99991.34;1771975;81;21359;-80
2023/06/03 14:03:05;;;;;;;18.80;5.58;;;;;;;24.09;53.88;100006.13;1773022;81;22514;-81
2023/06/03 14:06:04;;;;;;;26.82;7.20;;;;;;;24.20;53.67;100005.91;1773361;81;21292;-80
2023/06/03 14:09:10;;;;;;;15.23;5.17;;;;;;;23.85;55.77;100001.55;1772883;81;21862;-80
2023/06/03 14:12:15;;;;;;;12.00;5.40;;;;;;;23.77;54.58;100002.08;1772377;81;21917;-81
2023/06/03 14:15:21;;;;;;;9.55;5.00;;;;;;;23.80;53.55;100025.26;1772998;81;21328;-81
2023/06/03 14:18:27;;;;;;;18.05;5.20;;;;;;;23.49;54.41;100018.07;1773048;81;21331;-80
2023/06/03 14:21:34;;;;;;;10.98;4.58;;;;;;;23.35;55.35;100018.25;1773066;81;21322;-80
2023/06/03 14:24:33;;;;;;;10.18;6.08;;;;;;;23.31;55.88;100026.86;1773024;81;21300;-81
2023/06/03 14:27:39;;;;;;;14.68;6.35;;;;;;;23.18;55.69;100024.80;1772159;81;21327;-81
2023/06/03 14:30:45;;;;;;;12.13;6.17;;;;;;;23.25;55.13;100024.59;1762518;81;21343;-79
2023/06/03 14:33:52;;;;;;;14.90;6.75;;;;;;;23.47;53.94;100030.87;1764733;81;21300;-80
2023/06/03 14:36:59;;;;;;;10.38;6.95;;;;;;;23.36;53.97;100049.22;1763353;81;21305;-80